Flight Track Log - Related Links

Times and Time Zones

All times are in EDT time to prevent confusion due to time zone crossing. See the JIA2408 flight status page for this flight to view local times or setup timezone preferences in your user account.


Time Position Orientation Groundspeed Altitude Reporting Facility
EDT Latitude Longitude Course Direction KTS MPH feet Rate Location/Type
Sun 01:10:22 PM 32.3544 -86.4975 49° Northeast 219 252 5,100  Level Atlanta Center
Sun 01:11:00 PM 32.4904 -86.0994 55° Northeast  Level FlightAware Approximate
Sun 01:11:22 PM 32.4014 -86.4447 44° Northeast 179 206 7,700  Level Atlanta Center
Sun 01:12:00 PM 32.5500 -86.0000 47° Northeast  Level FlightAware Approximate
Sun 01:12:22 PM 32.4014 -86.3439 90° East 193 222 10,200  Level Atlanta Center
Sun 01:13:00 PM 32.6198 -85.9103 47° Northeast  Level FlightAware Approximate
Sun 01:13:22 PM 32.4033 -86.2333 89° East 281 323 12,400  Level Atlanta Center
Sun 01:14:00 PM 32.6857 -85.8168 56° Northeast  Level FlightAware Approximate
Sun 01:14:22 PM 32.4033 -86.1200 90° East 309 356 14,400  Level Atlanta Center
Sun 01:15:00 PM 32.7452 -85.7171 49° Northeast  Level FlightAware Approximate
Sun 01:15:22 PM 32.4075 -85.9875 88° East 341 392 15,900  Level Atlanta Center
Sun 01:16:22 PM 32.4050 -85.8742 91° East 362 417 17,500 1,650 Climbing Atlanta Center
Sun 01:17:22 PM 32.4383 -85.7419 73° East 374 430 19,200 1,500 Climbing Atlanta Center
Sun 01:18:22 PM 32.5208 -85.6572 41° Northeast 362 417 20,500 1,300 Climbing Atlanta Center
Sun 01:19:22 PM 32.5889 -85.5550 52° Northeast 373 429 21,800 1,250 Climbing Atlanta Center
Sun 01:20:22 PM 32.6444 -85.4375 61° Northeast 386 444 23,000 1,050 Climbing Atlanta Center
Sun 01:21:22 PM 32.7086 -85.3175 58° Northeast 410 472 23,900 800 Climbing Atlanta Center
Sun 01:22:22 PM 32.7722 -85.1950 58° Northeast 422 486 24,600 750 Climbing Atlanta Center
Sun 01:23:22 PM 32.8297 -85.0819 59° Northeast 427 491 25,400 850 Climbing Atlanta Center
Sun 01:24:22 PM 32.8975 -84.9419 60° Northeast 432 497 26,300 900 Climbing Atlanta Center
Sun 01:25:22 PM 32.9653 -84.8139 58° Northeast 448 516 27,200 750 Climbing Atlanta Center
Sun 01:26:22 PM 33.0308 -84.6806 60° Northeast 448 516 27,800 600 Climbing Atlanta Center
Sun 01:27:22 PM 33.0961 -84.5447 60° Northeast 460 529 28,400 600 Climbing Atlanta Center
Sun 01:28:22 PM 33.1633 -84.4111 59° Northeast 470 541 29,000 300 Climbing Atlanta Center
Sun 01:29:22 PM 33.2325 -84.2697 60° Northeast 470 541 29,000  Level Atlanta Center
Sun 01:30:22 PM 33.3017 -84.1308 59° Northeast 483 556 29,000  Level Atlanta Center
Sun 01:31:22 PM 33.3725 -83.9942 58° Northeast 477 549 29,000  Level Atlanta Center
Sun 01:32:22 PM 33.4392 -83.8522 61° Northeast 477 549 29,000  Level Atlanta Center
Sun 01:33:22 PM 33.5100 -83.7100 59° Northeast 482 555 29,000  Level Atlanta Center
Sun 01:34:22 PM 33.5764 -83.5700 60° Northeast 482 555 29,000  Level Atlanta Center
Sun 01:35:22 PM 33.6467 -83.4300 59° Northeast 487 560 29,000  Level Atlanta Center
Sun 01:36:22 PM 33.7106 -83.2922 61° Northeast 487 560 29,000  Level Atlanta Center
Sun 01:37:22 PM 33.7806 -83.1517 59° Northeast 482 555 29,000  Level Atlanta Center
Sun 01:38:22 PM 33.8400 -83.0233 61° Northeast 482 555 29,000  Level Atlanta Center
Sun 01:39:22 PM 33.9078 -82.8850 59° Northeast 482 555 29,000 -300 Level Atlanta Center
Sun 01:40:22 PM 33.9753 -82.7436 60° Northeast 482 555 28,400 -950 Descending Atlanta Center
Sun 01:41:22 PM 34.0383 -82.6075 61° Northeast 475 547 27,100 -1,300 Descending Atlanta Center
Sun 01:42:22 PM 34.1017 -82.4783 59° Northeast 451 519 25,800 -1,250 Descending Atlanta Center
Sun 01:43:22 PM 34.1583 -82.3544 61° Northeast 432 497 24,600 -1,500 Descending Atlanta Center
Sun 01:44:22 PM 34.2172 -82.2325 60° Northeast 427 491 22,800 -1,850 Descending Atlanta Center
Sun 01:45:22 PM 34.2719 -82.1308 57° Northeast 416 479 20,900 -2,100 Descending Atlanta Center
Sun 01:46:22 PM 34.3600 -82.0156 47° Northeast 400 460 18,600 -2,100 Descending Atlanta Center
Sun 01:47:22 PM 34.4294 -81.9258 47° Northeast 380 437 16,700 -1,850 Descending Atlanta Center
Sun 01:48:22 PM 34.4989 -81.8458 44° Northeast 360 414 14,900 -1,600 Descending Atlanta Center
Sun 01:49:22 PM 34.5619 -81.7611 48° Northeast 346 398 13,500 -1,304 Descending Atlanta Center
Sun 01:49:54 PM 34.5967 -81.7147 48° Northeast 331 381 12,900 -1,100 Descending Atlanta Center
Sun 01:50:22 PM 34.6272 -81.6761 46° Northeast 336 387 12,400 -1,068 Descending Atlanta Center
Sun 01:51:07 PM 34.6761 -81.6167 45° Northeast 332 382 11,600 -1,000 Descending Atlanta Center
Sun 01:51:22 PM 34.6842 -81.6061 47° Northeast 323 372 11,400 -590 Descending Atlanta Center
Sun 01:52:08 PM 34.7392 -81.5389 45° Northeast 326 375 11,000 -429 Descending Atlanta Center
Sun 01:53:14 PM 34.8019 -81.4486 50° Northeast 318 366 10,600 -850 Descending Atlanta Center
Sun 01:54:15 PM 34.8289 -81.3364 74° East 323 372 9,200 -1,279 Descending Atlanta Center
Sun 01:55:16 PM 34.8536 -81.2342 74° East 309 356 8,000 -1,082 Descending Atlanta Center
Sun 01:56:17 PM 34.8744 -81.1425 74° East 293 337 7,000 -492 Descending Atlanta Center
Sun 01:57:18 PM 34.8953 -81.0456 75° East 290 334 7,000 -344 Level Atlanta Center
Sun 01:58:19 PM 34.9481 -80.9928 39° Northeast 255 293 6,300 -750 Descending Atlanta Center
Sun 01:58:22 PM 34.9481 -80.9928 39° Northeast 247 284 6,200 -1,279 Descending Atlanta Center
Sun 01:59:20 PM 35.0117 -80.9525 27° Northeast 232 267 5,000 -1,200 Descending Atlanta Center
Sun 01:59:22 PM 35.0117 -80.9525 27° Northeast 236 272 5,000 -1,100 Level Atlanta Center
Sun 02:00:20 PM 35.0678 -80.9403 10° North 200 230 3,900 -1,138 Descending Atlanta Center

Login

Don't have an account? Register now (free) for customized features, flight alerts, and more!